Time;durP1;ratioP1;P1;durP2;ratioP2;P2;SDS_P1;SDS_P2;PMS_P1;PMS_P2;Temp;Humidity;BMP_temperature;BMP_pressure;BME280_temperature;BME280_humidity;BME280_pressure;Samples;Min_cycle;Max_cycle;Signal;HPM_P1;HPM_P2
2022/11/06 00:01:42;;;;;;;46.85;28.75;;;;;;;8.37;74.77;100186.13;1783722;80;20989;-41
2022/11/06 00:04:10;;;;;;;50.50;29.63;;;;;;;8.41;74.62;100181.65;1783628;80;21265;-40
2022/11/06 00:06:49;;;;;;;49.58;31.33;;;;;;;8.42;74.46;100185.94;1783731;80;21309;-40
2022/11/06 00:09:20;;;;;;;50.33;30.10;;;;;;;8.36;74.54;100185.33;1783552;80;21084;-41
2022/11/06 00:11:48;;;;;;;54.67;32.20;;;;;;;8.35;74.70;100182.94;1783936;80;20937;-41
2022/11/06 00:14:15;;;;;;;53.92;29.02;;;;;;;8.33;74.65;100183.84;1783613;80;20981;-41
2022/11/06 00:16:44;;;;;;;48.42;29.23;;;;;;;8.35;74.61;100185.08;1784075;80;21522;-41
2022/11/06 00:19:11;;;;;;;49.30;30.70;;;;;;;8.43;74.47;100184.80;1783675;80;21228;-41
2022/11/06 00:21:39;;;;;;;54.70;31.48;;;;;;;8.43;74.47;100188.85;1783494;80;21517;-41
2022/11/06 00:24:08;;;;;;;53.35;31.07;;;;;;;8.41;74.37;100187.05;1783710;80;20996;-41
2022/11/06 00:26:35;;;;;;;57.98;30.68;;;;;;;8.37;74.42;100192.32;1783891;80;20960;-41
2022/11/06 00:29:02;;;;;;;57.53;30.27;;;;;;;8.32;74.44;100191.70;1783560;80;21483;-41
2022/11/06 00:31:34;;;;;;;48.33;29.35;;;;;;;8.31;74.60;100182.00;1783941;80;21077;-41
2022/11/06 00:34:01;;;;;;;50.88;30.62;;;;;;;8.40;74.41;100182.20;1783714;80;21008;-40
2022/11/06 00:36:29;;;;;;;50.92;30.43;;;;;;;8.45;74.33;100179.87;1783609;80;20964;-41
2022/11/06 00:38:57;;;;;;;55.25;33.35;;;;;;;8.43;74.19;100182.09;1783817;80;20906;-40
2022/11/06 00:41:24;;;;;;;52.80;31.80;;;;;;;8.40;74.28;100171.95;1774898;80;20942;-41
2022/11/06 00:43:54;;;;;;;52.73;31.15;;;;;;;8.39;74.29;100173.06;1761820;80;21215;-41
2022/11/06 00:46:21;;;;;;;49.03;30.70;;;;;;;8.42;74.22;100173.78;1761759;80;20981;-41
2022/11/06 00:48:48;;;;;;;51.42;31.82;;;;;;;8.47;74.01;100174.36;1761911;81;21018;-40
2022/11/06 00:51:26;;;;;;;55.30;32.15;;;;;;;8.49;73.90;100173.49;1761695;81;21034;-40
2022/11/06 00:53:59;;;;;;;59.40;32.73;;;;;;;8.48;73.95;100176.52;1761168;81;21518;-41
2022/11/06 00:56:26;;;;;;;56.55;31.95;;;;;;;8.45;74.01;100179.32;1761703;81;21856;-41
2022/11/06 00:58:53;;;;;;;52.67;29.98;;;;;;;8.42;73.97;100173.78;1761626;81;21503;-40
2022/11/06 01:01:24;;;;;;;49.23;30.27;;;;;;;8.42;73.97;100175.93;1761780;81;20974;-41
2022/11/06 01:03:57;;;;;;;48.58;30.37;;;;;;;8.47;73.97;100169.55;1762110;80;20958;-40
2022/11/06 01:06:28;;;;;;;55.25;32.63;;;;;;;8.53;73.90;100173.63;1761764;81;21561;-40
2022/11/06 01:08:55;;;;;;;48.15;31.97;;;;;;;8.53;73.82;100174.98;1762178;81;21081;-40
2022/11/06 01:11:33;;;;;;;54.63;33.05;;;;;;;8.50;73.77;100176.99;1761693;81;20926;-40
2022/11/06 01:14:03;;;;;;;54.63;32.28;;;;;;;8.44;73.69;100182.34;1762026;80;20927;-40
2022/11/06 01:16:31;;;;;;;54.00;32.48;;;;;;;8.44;73.77;100176.37;1761869;81;21574;-40
2022/11/06 01:18:58;;;;;;;52.90;32.40;;;;;;;8.47;73.64;100176.30;1761935;80;21495;-40
2022/11/06 01:21:29;;;;;;;52.70;33.10;;;;;;;8.48;73.86;100173.81;1762060;80;21233;-40
2022/11/06 01:23:59;;;;;;;57.38;33.50;;;;;;;8.49;73.83;100169.44;1762052;80;21535;-41
2022/11/06 01:26:28;;;;;;;60.10;33.48;;;;;;;8.48;73.62;100169.75;1761726;81;21472;-41
2022/11/06 01:28:55;;;;;;;51.23;31.15;;;;;;;8.44;73.82;100163.42;1761953;81;21526;-40
2022/11/06 01:31:26;;;;;;;52.93;33.20;;;;;;;8.44;73.76;100163.42;1761801;80;21028;-40
2022/11/06 01:33:58;;;;;;;55.12;32.67;;;;;;;8.48;73.62;100160.30;1762023;81;21063;-41
2022/11/06 01:36:25;;;;;;;57.88;34.38;;;;;;;8.47;73.62;100163.55;1761837;80;21017;-40
2022/11/06 01:38:53;;;;;;;55.80;34.38;;;;;;;8.45;73.59;100170.42;1761779;81;21010;-40
2022/11/06 01:41:26;;;;;;;57.13;34.48;;;;;;;8.42;73.62;100159.72;1767144;80;21080;-40
2022/11/06 01:44:00;;;;;;;53.78;32.42;;;;;;;8.39;73.66;100166.30;1783770;80;21049;-40
2022/11/06 01:46:30;;;;;;;56.30;34.03;;;;;;;8.43;73.69;100166.68;1783669;80;21220;-41
2022/11/06 01:49:13;;;;;;;58.73;35.83;;;;;;;8.46;73.44;100167.95;1783699;80;20917;-41
2022/11/06 01:51:46;;;;;;;58.05;35.10;;;;;;;8.44;73.56;100163.42;1783714;80;20973;-41
2022/11/06 01:54:13;;;;;;;59.93;36.23;;;;;;;8.41;73.81;100161.38;1784028;80;21068;-40
2022/11/06 01:56:39;;;;;;;61.28;37.00;;;;;;;8.42;73.68;100158.36;1783436;80;21079;-40
2022/11/06 01:59:09;;;;;;;57.65;35.45;;;;;;;8.41;73.67;100162.73;1783647;80;22107;-40
2022/11/06 02:01:36;;;;;;;60.52;35.85;;;;;;;8.46;73.54;100162.55;1783635;80;20961;-40
2022/11/06 02:04:08;;;;;;;61.05;35.88;;;;;;;8.47;73.38;100156.80;1783658;80;20968;-40
2022/11/06 02:06:35;;;;;;;59.20;35.58;;;;;;;8.47;73.42;100161.44;1783920;80;21041;-40
2022/11/06 02:09:10;;;;;;;63.50;38.83;;;;;;;8.44;73.40;100157.47;1783606;80;21052;-40
2022/11/06 02:11:31;;;;;;;64.22;37.73;;;;;;;8.40;73.45;100155.73;1782606;79;21227;-40
2022/11/06 02:14:20;;;;;;;62.10;36.98;;;;;;;8.36;73.45;100152.91;1750918;80;20965;-40
2022/11/06 02:17:03;;;;;;;58.63;34.78;;;;;;;8.34;73.42;100154.33;1783720;80;21577;-40
2022/11/06 02:19:45;;;;;;;60.92;35.75;;;;;;;8.33;73.45;100150.06;1783592;80;21605;-40
2022/11/06 02:22:24;;;;;;;63.80;37.67;;;;;;;8.31;73.68;100151.73;1782691;80;20968;-40
2022/11/06 02:25:14;;;;;;;63.48;37.28;;;;;;;8.27;73.69;100152.13;1783761;80;21228;-41
2022/11/06 02:27:49;;;;;;;65.52;38.65;;;;;;;8.23;73.88;100151.95;1783746;80;21504;-41
2022/11/06 02:30:17;;;;;;;59.98;35.60;;;;;;;8.18;73.93;100152.13;1783727;80;21017;-41
2022/11/06 02:32:56;;;;;;;58.17;37.65;;;;;;;8.16;74.01;100151.69;1783917;80;21538;-40
2022/11/06 02:35:50;;;;;;;65.80;37.78;;;;;;;8.21;74.07;100151.50;1784042;80;21279;-40
2022/11/06 02:38:28;;;;;;;63.15;37.28;;;;;;;8.25;74.04;100157.05;1777055;80;21085;-40
2022/11/06 02:40:58;;;;;;;65.03;38.00;;;;;;;8.26;74.08;100151.88;1783596;80;21538;-41
2022/11/06 02:43:28;;;;;;;;;;;;;;;8.24;73.92;100152.20;1764797;79;21017;-40
2022/11/06 02:46:04;;;;;;;47.03;27.30;;;;;;;8.21;73.89;100151.50;1761955;81;20192;-40
2022/11/06 02:48:40;;;;;;;58.73;34.63;;;;;;;8.08;74.18;100155.22;1761950;81;21112;-41
2022/11/06 02:51:07;;;;;;;58.80;36.00;;;;;;;8.14;74.08;100167.41;1762034;81;21206;-41
2022/11/06 02:53:34;;;;;;;63.78;37.75;;;;;;;8.20;74.01;100162.06;1738658;81;21009;-41
2022/11/06 02:56:06;;;;;;;66.20;38.02;;;;;;;8.24;74.13;100167.05;1761796;81;20930;-40
2022/11/06 02:58:47;;;;;;;63.65;38.25;;;;;;;8.27;73.96;100165.63;1761771;81;21017;-41
2022/11/06 03:01:31;;;;;;;70.03;38.30;;;;;;;8.27;73.89;100166.42;1761691;80;20967;-41
2022/11/06 03:04:03;;;;;;;61.50;35.70;;;;;;;8.23;73.77;100166.81;1762089;81;21232;-40
2022/11/06 03:06:41;;;;;;;62.00;37.28;;;;;;;8.19;73.72;100163.17;1761815;81;21040;-41
2022/11/06 03:09:12;;;;;;;62.50;37.53;;;;;;;8.22;73.70;100157.70;1761620;80;21006;-41
2022/11/06 03:11:38;;;;;;;65.05;38.63;;;;;;;8.20;73.92;100164.77;1761876;80;21083;-40
2022/11/06 03:14:18;;;;;;;65.47;38.73;;;;;;;8.20;73.84;100167.47;1762008;81;21068;-41
2022/11/06 03:17:11;;;;;;;66.15;38.28;;;;;;;8.20;73.89;100156.66;1762038;80;21264;-40
2022/11/06 03:19:56;;;;;;;64.62;36.85;;;;;;;8.22;73.90;100170.66;1761626;80;21005;-40
2022/11/06 03:22:34;;;;;;;59.08;35.90;;;;;;;8.27;73.66;100165.63;1744325;81;21571;-40
2022/11/06 03:25:21;;;;;;;59.58;36.38;;;;;;;8.33;73.51;100163.58;1761228;81;21005;-40
2022/11/06 03:28:08;;;;;;;59.90;35.73;;;;;;;8.37;73.48;100161.80;1761941;81;21499;-41
2022/11/06 03:30:39;;;;;;;66.97;38.40;;;;;;;8.33;73.39;100164.92;1762304;81;21570;-40
2022/11/06 03:33:37;;;;;;;64.85;36.95;;;;;;;8.27;73.34;100158.31;1761810;81;21013;-41
2022/11/06 03:36:21;;;;;;;58.98;33.78;;;;;;;8.25;73.41;100163.80;1761791;81;20994;-40
2022/11/06 03:38:52;;;;;;;63.83;35.63;;;;;;;8.22;73.34;100158.50;1761907;81;20993;-41
2022/11/06 03:41:47;;;;;;;58.28;35.55;;;;;;;8.25;73.40;100159.19;1761976;81;21025;-40
2022/11/06 03:44:19;;;;;;;63.83;35.08;;;;;;;8.22;73.46;100163.90;1761776;80;21292;-41
2022/11/06 03:46:51;;;;;;;58.85;34.63;;;;;;;8.19;73.73;100164.53;1768469;80;20988;-40
2022/11/06 03:49:23;;;;;;;61.35;34.33;;;;;;;8.18;73.62;100160.23;1789117;80;20988;-40
2022/11/06 03:52:01;;;;;;;57.03;33.73;;;;;;;8.16;73.58;100161.14;1789188;80;21561;-41
2022/11/06 03:54:35;;;;;;;60.75;35.13;;;;;;;8.19;73.53;100158.33;1789128;80;21086;-40
2022/11/06 03:57:10;;;;;;;54.60;33.98;;;;;;;8.20;73.57;100157.22;1789504;80;21167;-41
2022/11/06 03:59:44;;;;;;;58.40;34.65;;;;;;;8.15;73.52;100156.84;1789341;80;21003;-41
2022/11/06 04:02:11;;;;;;;64.25;37.23;;;;;;;8.11;73.78;100151.06;1789617;80;21006;-41
2022/11/06 04:04:56;;;;;;;56.70;33.00;;;;;;;8.05;73.95;100159.09;1789184;80;20991;-40
2022/11/06 04:07:34;;;;;;;59.03;33.10;;;;;;;8.04;74.04;100156.95;1789239;80;20971;-41
2022/11/06 04:15:46;;;;;;;63.45;36.35;;;;;;;8.15;74.04;100154.70;1770503;80;21071;-41
2022/11/06 04:18:14;;;;;;;56.75;34.73;;;;;;;8.09;74.04;100147.88;1789058;80;20963;-41
2022/11/06 04:26:58;;;;;;;56.88;32.67;;;;;;;8.06;74.21;100150.69;1789070;80;21521;-40
2022/11/06 04:29:39;;;;;;;61.73;34.43;;;;;;;8.04;74.49;100145.35;1789126;80;21067;-41
2022/11/06 04:32:20;;;;;;;57.85;34.15;;;;;;;8.06;74.46;100152.03;1781910;80;21039;-40
2022/11/06 04:35:04;;;;;;;61.70;33.92;;;;;;;8.03;74.40;100152.69;1789235;80;21055;-40
2022/11/06 04:37:56;;;;;;;56.58;32.60;;;;;;;8.06;74.25;100153.94;1789277;80;21837;-40
2022/11/06 04:40:28;;;;;;;63.28;34.58;;;;;;;8.09;74.24;100145.97;1761593;80;20921;-41
2022/11/06 04:43:00;;;;;;;56.70;34.03;;;;;;;8.07;74.16;100146.88;1785345;78;20968;-41
2022/11/06 04:45:33;;;;;;;57.35;34.00;;;;;;;8.04;74.32;100151.55;1781121;80;20989;-40
2022/11/06 04:47:59;;;;;;;59.60;32.53;;;;;;;8.00;74.38;100154.66;1780051;80;21541;-40
2022/11/06 04:50:27;;;;;;;52.25;31.05;;;;;;;7.96;74.52;100159.13;1752699;80;23088;-41
2022/11/06 04:52:54;;;;;;;50.63;30.45;;;;;;;7.98;74.67;100165.02;1780999;80;20995;-41
2022/11/06 04:55:21;;;;;;;56.05;32.15;;;;;;;8.04;74.47;100165.61;1781103;80;21023;-40
2022/11/06 04:57:48;;;;;;;52.27;30.97;;;;;;;8.08;74.70;100161.97;1781217;80;20972;-40
2022/11/06 05:00:17;;;;;;;56.20;32.83;;;;;;;8.11;74.50;100161.31;1781232;80;21043;-41
2022/11/06 05:02:43;;;;;;;58.02;31.25;;;;;;;8.10;74.39;100163.77;1781099;80;21477;-41
2022/11/06 05:05:10;;;;;;;54.73;31.00;;;;;;;8.07;74.28;100172.53;1781141;80;21011;-40
2022/11/06 05:07:37;;;;;;;50.45;29.67;;;;;;;8.04;74.42;100170.45;1781094;80;21081;-41
2022/11/06 05:10:05;;;;;;;52.40;29.32;;;;;;;8.10;74.40;100167.82;1781167;80;21056;-41
2022/11/06 05:12:33;;;;;;;59.75;32.83;;;;;;;8.15;74.26;100177.09;1781296;80;21098;-41
2022/11/06 05:14:59;;;;;;;54.27;31.33;;;;;;;8.13;74.29;100174.50;1781132;80;21124;-40
2022/11/06 05:17:26;;;;;;;51.55;30.85;;;;;;;8.11;74.37;100180.22;1781118;80;20976;-41
2022/11/06 05:19:53;;;;;;;51.10;29.72;;;;;;;8.12;74.37;100185.86;1781120;80;21019;-40
2022/11/06 05:25:07;;;;;;;47.93;27.77;;;;;;;8.20;73.98;100189.08;1781267;80;21020;-41
2022/11/06 05:27:34;;;;;;;51.75;28.90;;;;;;;8.20;74.16;100190.43;1781083;80;21203;-40
2022/11/06 05:30:01;;;;;;;53.83;29.42;;;;;;;8.22;74.24;100193.61;1781111;80;21016;-40
2022/11/06 05:32:29;;;;;;;55.78;30.32;;;;;;;8.19;74.10;100195.59;1781007;80;21466;-41
2022/11/06 05:34:57;;;;;;;47.90;28.10;;;;;;;8.17;74.20;100197.05;1781158;80;21593;-40
2022/11/06 05:37:24;;;;;;;48.30;27.67;;;;;;;8.19;74.04;100196.94;1780946;80;21563;-41
2022/11/06 05:39:52;;;;;;;49.05;27.58;;;;;;;8.22;73.90;100194.17;1753174;80;21207;-41
2022/11/06 05:42:20;;;;;;;50.55;29.35;;;;;;;8.23;74.07;100202.48;1781046;78;20948;-41
2022/11/06 05:44:48;;;;;;;49.90;30.20;;;;;;;8.19;74.07;100199.64;1781154;80;21085;-41
2022/11/06 05:47:15;;;;;;;49.98;28.90;;;;;;;8.18;74.33;100200.75;1781032;80;21008;-41
2022/11/06 05:49:42;;;;;;;53.38;27.58;;;;;;;8.18;74.35;100202.69;1781173;80;21059;-40
2022/11/06 05:52:09;;;;;;;46.35;26.87;;;;;;;8.21;74.18;100204.17;1781099;80;21085;-40
2022/11/06 05:54:35;;;;;;;45.58;27.73;;;;;;;8.28;74.07;100204.45;1781021;80;20980;-41
2022/11/06 05:57:02;;;;;;;48.40;27.65;;;;;;;8.37;74.10;100211.23;1781076;80;20988;-41
2022/11/06 05:59:30;;;;;;;47.88;28.25;;;;;;;8.40;73.78;100211.13;1780936;80;20972;-41
2022/11/06 06:01:58;;;;;;;50.78;28.32;;;;;;;8.37;73.71;100210.44;1781277;80;21556;-41
2022/11/06 06:04:25;;;;;;;49.08;26.93;;;;;;;8.31;73.68;100209.02;1781148;80;21127;-41
2022/11/06 06:06:51;;;;;;;48.55;26.40;;;;;;;8.27;73.78;100215.05;1781265;80;20929;-41
2022/11/06 06:09:18;;;;;;;46.68;27.13;;;;;;;8.35;73.91;100214.80;1781274;80;21651;-41
2022/11/06 06:11:51;;;;;;;51.73;28.77;;;;;;;8.44;73.66;100220.17;1781327;80;20969;-41
2022/11/06 06:14:20;;;;;;;46.60;27.93;;;;;;;8.45;73.72;100219.06;1781538;80;21538;-41
2022/11/06 06:16:48;;;;;;;52.20;29.10;;;;;;;8.45;73.64;100219.85;1781245;80;20944;-41
2022/11/06 06:19:15;;;;;;;52.38;29.55;;;;;;;8.45;73.65;100221.76;1780996;80;21467;-41
2022/11/06 06:21:43;;;;;;;53.87;28.35;;;;;;;8.43;73.52;100221.28;1781119;80;21095;-40
2022/11/06 06:24:10;;;;;;;48.90;27.20;;;;;;;8.42;73.58;100228.62;1781464;80;21486;-40
2022/11/06 06:26:38;;;;;;;48.80;27.25;;;;;;;8.49;73.45;100229.45;1781190;80;21021;-40
2022/11/06 06:29:05;;;;;;;49.48;28.05;;;;;;;8.51;73.50;100238.04;1781357;80;21111;-41
2022/11/06 06:31:32;;;;;;;48.92;29.57;;;;;;;8.52;73.48;100234.98;1781004;80;20964;-41
2022/11/06 06:33:59;;;;;;;49.65;27.82;;;;;;;8.51;73.31;100237.48;1781496;80;21023;-41
2022/11/06 06:36:26;;;;;;;52.83;27.77;;;;;;;8.50;73.40;100235.89;1781239;80;21003;-41
2022/11/06 06:38:54;;;;;;;47.30;26.70;;;;;;;8.56;73.27;100241.36;1781350;80;21024;-41
2022/11/06 06:41:21;;;;;;;48.73;27.60;;;;;;;8.63;73.01;100240.83;1781220;80;21043;-41
2022/11/06 06:43:48;;;;;;;48.17;27.37;;;;;;;8.67;72.84;100239.86;1781186;78;21039;-41
2022/11/06 06:46:16;;;;;;;46.60;27.50;;;;;;;8.69;72.74;100239.55;1781125;80;21007;-41
2022/11/06 06:48:43;;;;;;;47.93;27.85;;;;;;;8.68;72.74;100240.66;1781244;80;21075;-41
2022/11/06 06:51:10;;;;;;;49.83;28.23;;;;;;;8.66;72.60;100242.35;1781236;80;21505;-40
2022/11/06 06:53:36;;;;;;;47.08;26.52;;;;;;;8.62;72.73;100240.04;1781206;80;21108;-41
2022/11/06 06:56:05;;;;;;;43.17;25.92;;;;;;;8.68;72.73;100250.12;1781271;80;21048;-41
2022/11/06 06:58:32;;;;;;;43.45;26.40;;;;;;;8.73;72.55;100243.17;1781372;80;21252;-41
2022/11/06 07:01:01;;;;;;;46.63;26.73;;;;;;;8.79;72.54;100246.50;1781337;80;21625;-40
2022/11/06 07:03:28;;;;;;;47.88;26.25;;;;;;;8.80;72.38;100242.12;1781378;80;21091;-41
2022/11/06 07:05:57;;;;;;;44.48;26.30;;;;;;;8.78;72.36;100248.41;1781297;80;21218;-41
2022/11/06 07:08:27;;;;;;;46.25;27.22;;;;;;;8.78;72.43;100241.64;1781363;80;20980;-41
2022/11/06 07:11:02;;;;;;;37.15;19.73;;;;;;;8.51;72.18;100208.31;1780965;80;20937;-41
2022/11/06 07:13:30;;;;;;;43.28;25.60;;;;;;;8.77;71.94;100248.72;1780820;80;21610;-41
2022/11/06 07:15:57;;;;;;;43.90;26.23;;;;;;;8.77;72.24;100248.72;1781413;80;21600;-41
2022/11/06 07:18:23;;;;;;;43.50;26.52;;;;;;;8.83;72.11;100255.53;1781336;80;21105;-41
2022/11/06 07:20:51;;;;;;;42.62;26.68;;;;;;;8.81;71.92;100257.20;1781241;80;20960;-41
2022/11/06 07:23:17;;;;;;;42.73;25.85;;;;;;;8.79;72.06;100254.61;1781192;80;20925;-41
2022/11/06 07:25:44;;;;;;;49.75;27.82;;;;;;;8.77;72.04;100262.23;1781284;80;20894;-41
2022/11/06 07:28:11;;;;;;;42.10;25.27;;;;;;;8.73;72.11;100262.89;1781287;80;21036;-41
2022/11/06 07:30:37;;;;;;;38.70;24.55;;;;;;;8.79;72.18;100258.11;1781546;80;21066;-41
2022/11/06 07:33:04;;;;;;;47.17;26.20;;;;;;;8.86;72.00;100260.31;1781306;80;21494;-41
2022/11/06 07:35:34;;;;;;;42.48;26.17;;;;;;;8.92;71.96;100261.13;1781222;80;20909;-41
2022/11/06 07:38:05;;;;;;;45.50;26.68;;;;;;;8.98;72.04;100267.95;1781260;80;21048;-41
2022/11/06 07:40:33;;;;;;;48.73;27.62;;;;;;;9.02;71.66;100268.08;1781191;80;20936;-41
2022/11/06 07:43:08;;;;;;;49.00;28.00;;;;;;;9.03;71.40;100269.67;1781043;78;21328;-41
2022/11/06 07:45:35;;;;;;;43.87;26.20;;;;;;;8.97;71.31;100273.12;1775137;80;20971;-41
2022/11/06 07:48:03;;;;;;;44.40;25.12;;;;;;;8.92;71.47;100270.59;1781114;80;21652;-41
2022/11/06 07:50:30;;;;;;;40.08;25.23;;;;;;;8.97;71.64;100278.53;1781066;80;20988;-41
2022/11/06 07:53:03;;;;;;;47.95;26.80;;;;;;;9.07;71.32;100276.02;1781326;80;21043;-41
2022/11/06 07:55:29;;;;;;;47.58;26.93;;;;;;;9.08;71.49;100277.60;1781366;80;21139;-41
2022/11/06 07:57:58;;;;;;;47.05;27.27;;;;;;;9.07;71.38;100274.10;1781162;80;20937;-41
2022/11/06 08:00:25;;;;;;;49.03;27.85;;;;;;;9.03;71.37;100274.53;1781429;80;21015;-41
2022/11/06 08:02:53;;;;;;;45.85;26.25;;;;;;;8.99;71.51;100270.09;1781084;80;20939;-41
2022/11/06 08:05:20;;;;;;;46.37;25.55;;;;;;;8.94;71.62;100273.78;1781187;80;21067;-41
2022/11/06 08:07:47;;;;;;;46.28;26.25;;;;;;;8.97;71.90;100277.17;1781246;80;21129;-41
2022/11/06 08:10:14;;;;;;;45.33;27.20;;;;;;;9.02;71.82;100270.23;1781139;80;20936;-41
2022/11/06 08:12:42;;;;;;;44.83;25.97;;;;;;;9.00;71.98;100273.84;1781058;80;21510;-41
2022/11/06 08:15:10;;;;;;;49.53;27.17;;;;;;;9.04;72.34;100284.23;1781240;80;21021;-41
2022/11/06 08:17:37;;;;;;;49.55;28.42;;;;;;;9.07;72.16;100278.16;1781347;80;21044;-41
2022/11/06 08:20:08;;;;;;;45.70;26.62;;;;;;;9.09;72.18;100281.34;1780974;80;21032;-41
2022/11/06 08:22:35;;;;;;;46.10;25.20;;;;;;;9.14;72.28;100280.36;1781409;80;21044;-41
2022/11/06 08:25:02;;;;;;;47.38;27.48;;;;;;;9.21;71.97;100279.27;1781179;80;21048;-41
2022/11/06 08:27:29;;;;;;;50.05;28.45;;;;;;;9.23;72.18;100281.09;1781170;80;20944;-41
2022/11/06 08:29:56;;;;;;;46.90;27.22;;;;;;;9.26;72.23;100289.11;1781213;80;21091;-41
2022/11/06 08:32:23;;;;;;;50.88;28.20;;;;;;;9.22;71.94;100284.92;1781164;80;21171;-41
2022/11/06 08:34:50;;;;;;;47.00;26.12;;;;;;;9.20;72.22;100284.44;1781144;80;21048;-41
2022/11/06 08:37:17;;;;;;;43.78;25.37;;;;;;;9.19;72.16;100283.44;1781184;80;20978;-41
2022/11/06 08:39:44;;;;;;;44.73;25.97;;;;;;;9.21;71.83;100287.94;1781248;80;21091;-41
2022/11/06 08:42:11;;;;;;;46.95;26.00;;;;;;;9.22;71.84;100288.19;1781292;80;21015;-41
2022/11/06 08:44:38;;;;;;;43.95;25.23;;;;;;;9.16;71.89;100285.66;1781145;78;21225;-41
2022/11/06 08:47:05;;;;;;;45.88;27.02;;;;;;;9.10;72.06;100285.61;1781099;80;20968;-41
2022/11/06 08:49:33;;;;;;;48.40;27.02;;;;;;;9.07;71.95;100286.27;1780934;80;20996;-41
2022/11/06 08:52:01;;;;;;;43.40;24.77;;;;;;;9.01;72.06;100286.77;1781099;80;20995;-41
2022/11/06 08:54:28;;;;;;;43.70;25.05;;;;;;;9.04;72.45;100281.53;1781208;80;21596;-41
2022/11/06 08:56:57;;;;;;;47.08;27.35;;;;;;;9.13;72.38;100289.03;1781237;80;21141;-41
2022/11/06 08:59:24;;;;;;;49.08;27.60;;;;;;;9.22;72.33;100288.19;1781278;80;21537;-41
2022/11/06 09:01:50;;;;;;;44.25;27.25;;;;;;;9.20;71.91;100283.67;1781065;80;21031;-41
2022/11/06 09:04:18;;;;;;;47.85;28.35;;;;;;;9.13;71.79;100285.53;1781155;80;21028;-41
2022/11/06 09:06:45;;;;;;;44.03;26.25;;;;;;;9.04;71.89;100282.88;1781320;80;21079;-41
2022/11/06 09:09:11;;;;;;;42.17;26.85;;;;;;;9.06;72.25;100285.23;1781166;80;21224;-41
2022/11/06 09:11:38;;;;;;;43.15;27.48;;;;;;;9.11;72.24;100281.80;1781133;80;21015;-41
2022/11/06 09:14:05;;;;;;;44.42;27.73;;;;;;;9.15;72.30;100281.36;1781205;80;20941;-41
2022/11/06 09:16:32;;;;;;;43.90;26.73;;;;;;;9.18;72.09;100280.48;1781179;80;21087;-41
2022/11/06 09:19:00;;;;;;;44.03;27.65;;;;;;;9.16;71.96;100278.10;1781035;80;20941;-41
2022/11/06 09:21:27;;;;;;;41.95;26.62;;;;;;;9.11;72.03;100277.73;1781204;80;21074;-41
2022/11/06 09:23:54;;;;;;;40.63;25.25;;;;;;;9.08;72.04;100283.02;1781228;80;20940;-41
2022/11/06 09:26:22;;;;;;;42.73;26.15;;;;;;;9.06;72.01;100276.56;1781015;80;20955;-41
2022/11/06 09:28:49;;;;;;;40.67;26.40;;;;;;;9.08;72.23;100274.34;1781245;80;20932;-41
2022/11/06 09:31:15;;;;;;;42.17;26.37;;;;;;;9.11;72.51;100272.32;1781128;80;21047;-41
2022/11/06 09:33:42;;;;;;;42.03;27.25;;;;;;;9.14;72.36;100275.75;1781237;80;21224;-41
2022/11/06 09:36:10;;;;;;;42.45;26.52;;;;;;;9.15;72.40;100272.45;1781211;80;21011;-41
2022/11/06 09:38:38;;;;;;;44.27;25.17;;;;;;;9.13;72.40;100275.51;1781170;80;21035;-41
2022/11/06 09:41:05;;;;;;;44.00;27.05;;;;;;;9.22;72.38;100276.01;1781239;80;21013;-41
2022/11/06 09:44:06;;;;;;;39.40;25.97;;;;;;;9.28;71.96;100274.70;1780860;78;21016;-41
2022/11/06 09:48:41;;;;;;;44.18;26.70;;;;;;;9.25;71.85;100275.34;1830993;78;22637;-41
2022/11/06 09:51:30;;;;;;;42.48;26.75;;;;;;;9.07;71.95;100276.02;1803191;79;21489;-41
2022/11/06 09:54:06;;;;;;;46.48;27.82;;;;;;;9.03;72.07;100273.17;1803215;79;21215;-41
2022/11/06 09:56:36;;;;;;;42.33;23.87;;;;;;;9.02;72.46;100271.58;1803132;79;20936;-41
2022/11/06 09:59:04;;;;;;;37.10;23.12;;;;;;;9.06;72.63;100270.36;1807205;79;21003;-41
2022/11/06 10:01:40;;;;;;;39.42;24.30;;;;;;;9.15;72.23;100278.66;1816893;79;21015;-41
2022/11/06 10:04:11;;;;;;;41.85;25.85;;;;;;;9.20;72.32;100280.97;1815601;79;20910;-41
2022/11/06 10:06:38;;;;;;;40.05;24.50;;;;;;;9.26;72.41;100272.31;1784011;79;21850;-41
2022/11/06 10:09:05;;;;;;;38.88;24.80;;;;;;;9.25;71.50;100279.40;1816553;79;20945;-41
2022/11/06 10:12:13;;;;;;;41.10;25.00;;;;;;;9.18;71.73;100275.08;1816458;79;20988;-41
2022/11/06 10:15:14;;;;;;;39.38;23.32;;;;;;;9.15;72.21;100275.16;1815561;79;20964;-41
2022/11/06 10:18:06;;;;;;;35.48;21.82;;;;;;;9.19;72.27;100279.38;1816349;79;21490;-42
2022/11/06 10:20:52;;;;;;;40.08;22.80;;;;;;;9.19;72.19;100272.61;1816364;79;21541;-42
2022/11/06 10:23:46;;;;;;;38.05;22.67;;;;;;;9.15;72.05;100273.25;1816369;79;21052;-42
2022/11/06 10:26:19;;;;;;;34.65;20.97;;;;;;;9.15;72.15;100274.60;1815977;79;21490;-42
2022/11/06 10:29:24;;;;;;;34.95;20.82;;;;;;;9.14;72.34;100273.59;1816534;79;20987;-42
2022/11/06 10:32:30;;;;;;;29.87;19.15;;;;;;;9.16;72.24;100273.48;1816553;79;20996;-42
2022/11/06 10:35:04;;;;;;;27.98;18.55;;;;;;;9.19;72.15;100269.91;1816481;78;21183;-42
2022/11/06 10:38:00;;;;;;;30.17;18.80;;;;;;;9.18;71.63;100265.05;1815765;79;21629;-42
2022/11/06 10:40:30;;;;;;;30.92;18.65;;;;;;;9.14;71.88;100261.42;1816503;79;20949;-42
2022/11/06 10:43:18;;;;;;;;;;;;;;;9.10;71.88;100263.20;1819455;78;21016;-42
2022/11/06 10:45:51;;;;;;;;;;;;;;;9.04;71.98;100263.95;1819319;79;20117;-42
2022/11/06 10:48:29;;;;;;;27.67;16.55;;;;;;;8.88;72.37;100265.61;1802579;79;21271;-42
2022/11/06 10:51:18;;;;;;;26.35;16.23;;;;;;;8.78;72.69;100257.06;1797944;79;20946;-42
2022/11/06 10:54:11;;;;;;;26.27;16.42;;;;;;;8.88;72.63;100254.80;1798080;79;20957;-42
2022/11/06 10:57:06;;;;;;;25.27;15.85;;;;;;;8.90;72.43;100253.92;1797755;79;20973;-42
2022/11/06 10:59:33;;;;;;;23.02;16.65;;;;;;;8.89;72.83;100252.89;1797543;79;21049;-42
2022/11/06 11:02:01;;;;;;;22.67;15.08;;;;;;;8.94;72.97;100249.44;1797435;79;21218;-42
2022/11/06 11:04:30;;;;;;;24.92;16.10;;;;;;;8.97;72.80;100240.67;1797340;79;21037;-42
2022/11/06 11:07:01;;;;;;;23.05;14.60;;;;;;;9.01;72.59;100243.50;1742525;79;21005;-42
2022/11/06 11:09:31;;;;;;;21.40;14.20;;;;;;;9.04;72.60;100238.25;1796058;79;20990;-42
2022/11/06 11:11:58;;;;;;;21.70;14.63;;;;;;;9.17;72.38;100232.35;1797857;79;21535;-42
2022/11/06 11:14:28;;;;;;;22.55;15.15;;;;;;;9.21;72.25;100234.63;1797408;79;21123;-42
2022/11/06 11:17:01;;;;;;;27.13;16.67;;;;;;;9.22;71.96;100236.78;1797340;79;21056;-42
2022/11/06 11:19:40;;;;;;;23.18;16.50;;;;;;;9.19;71.84;100233.39;1766627;79;20990;-42
2022/11/06 11:22:18;;;;;;;23.55;15.58;;;;;;;9.16;71.87;100232.91;1797867;79;20934;-42
2022/11/06 11:25:05;;;;;;;22.00;14.50;;;;;;;9.13;71.77;100238.19;1797501;79;21020;-42
2022/11/06 11:27:39;;;;;;;22.98;15.08;;;;;;;9.11;71.54;100235.02;1797527;79;21062;-42
2022/11/06 11:30:25;;;;;;;23.00;15.65;;;;;;;9.10;71.64;100232.86;1797285;79;21507;-42
2022/11/06 11:32:53;;;;;;;24.90;16.10;;;;;;;9.10;71.83;100222.04;1797785;79;20938;-42
2022/11/06 11:35:27;;;;;;;25.77;16.50;;;;;;;9.07;71.91;100225.97;1797322;79;20970;-42
2022/11/06 11:38:12;;;;;;;24.27;16.62;;;;;;;9.03;71.93;100225.05;1797713;79;20934;-42
2022/11/06 11:40:39;;;;;;;27.15;16.95;;;;;;;8.99;71.92;100227.63;1797467;79;21895;-42
2022/11/06 11:43:22;;;;;;;25.62;17.17;;;;;;;8.96;72.04;100222.84;1797518;79;21041;-42
2022/11/06 11:46:13;;;;;;;25.08;16.25;;;;;;;8.95;72.04;100218.58;1797320;79;21574;-42
2022/11/06 11:48:55;;;;;;;26.12;17.12;;;;;;;8.97;72.15;100223.64;1802292;79;20941;-42
2022/11/06 11:51:35;;;;;;;27.00;17.05;;;;;;;8.97;72.36;100223.09;1804746;79;21093;-42
2022/11/06 11:54:13;;;;;;;25.73;17.70;;;;;;;8.99;72.44;100218.71;1805153;79;21244;-42
2022/11/06 11:56:59;;;;;;;27.87;17.23;;;;;;;8.98;72.25;100222.53;1804659;79;21585;-42